sensor_id;sensor_type;location;lat;lon;timestamp;P1;durP1;ratioP1;P2;durP2;ratioP2
12412;SDS011;13877;18.896;-99.222;2023-09-30T00:00:17;22.05;;;9.68;;
12412;SDS011;13877;18.896;-99.222;2023-09-30T00:02:44;15.63;;;8.90;;
12412;SDS011;13877;18.896;-99.222;2023-09-30T00:05:11;23.33;;;9.23;;
12412;SDS011;13877;18.896;-99.222;2023-09-30T00:07:41;22.85;;;8.98;;
12412;SDS011;13877;18.896;-99.222;2023-09-30T00:10:08;16.73;;;8.65;;
12412;SDS011;13877;18.896;-99.222;2023-09-30T00:12:36;22.17;;;9.15;;
12412;SDS011;13877;18.896;-99.222;2023-09-30T00:15:04;20.27;;;9.40;;
12412;SDS011;13877;18.896;-99.222;2023-09-30T00:17:31;16.33;;;8.98;;
12412;SDS011;13877;18.896;-99.222;2023-09-30T00:19:58;18.55;;;9.38;;
12412;SDS011;13877;18.896;-99.222;2023-09-30T00:22:26;23.33;;;10.43;;
12412;SDS011;13877;18.896;-99.222;2023-09-30T00:24:53;21.45;;;9.85;;
12412;SDS011;13877;18.896;-99.222;2023-09-30T00:27:20;15.50;;;9.15;;
12412;SDS011;13877;18.896;-99.222;2023-09-30T00:29:47;18.27;;;8.98;;
12412;SDS011;13877;18.896;-99.222;2023-09-30T00:32:15;19.30;;;10.10;;
12412;SDS011;13877;18.896;-99.222;2023-09-30T00:34:42;18.75;;;9.85;;
12412;SDS011;13877;18.896;-99.222;2023-09-30T00:37:11;16.17;;;8.52;;
12412;SDS011;13877;18.896;-99.222;2023-09-30T00:39:38;18.63;;;9.75;;
12412;SDS011;13877;18.896;-99.222;2023-09-30T00:42:05;14.57;;;9.98;;
12412;SDS011;13877;18.896;-99.222;2023-09-30T00:44:32;22.10;;;10.55;;
12412;SDS011;13877;18.896;-99.222;2023-09-30T00:47:00;19.27;;;10.25;;
12412;SDS011;13877;18.896;-99.222;2023-09-30T00:49:28;19.02;;;9.57;;
12412;SDS011;13877;18.896;-99.222;2023-09-30T00:51:56;21.27;;;10.68;;
12412;SDS011;13877;18.896;-99.222;2023-09-30T00:54:24;16.05;;;9.10;;
12412;SDS011;13877;18.896;-99.222;2023-09-30T00:56:52;18.75;;;10.57;;
12412;SDS011;13877;18.896;-99.222;2023-09-30T00:59:26;21.17;;;10.63;;
12412;SDS011;13877;18.896;-99.222;2023-09-30T01:01:56;29.13;;;10.35;;
12412;SDS011;13877;18.896;-99.222;2023-09-30T01:04:29;26.55;;;10.68;;
12412;SDS011;13877;18.896;-99.222;2023-09-30T01:06:56;20.13;;;10.43;;
12412;SDS011;13877;18.896;-99.222;2023-09-30T01:09:26;26.27;;;9.57;;
12412;SDS011;13877;18.896;-99.222;2023-09-30T01:11:53;16.88;;;9.57;;
12412;SDS011;13877;18.896;-99.222;2023-09-30T01:14:27;16.92;;;10.18;;
12412;SDS011;13877;18.896;-99.222;2023-09-30T01:16:55;23.50;;;9.88;;
12412;SDS011;13877;18.896;-99.222;2023-09-30T01:19:24;24.30;;;10.02;;
12412;SDS011;13877;18.896;-99.222;2023-09-30T01:21:53;27.45;;;11.13;;
12412;SDS011;13877;18.896;-99.222;2023-09-30T01:24:25;25.95;;;10.93;;
12412;SDS011;13877;18.896;-99.222;2023-09-30T01:26:53;18.45;;;10.13;;
12412;SDS011;13877;18.896;-99.222;2023-09-30T01:29:20;31.48;;;10.48;;
12412;SDS011;13877;18.896;-99.222;2023-09-30T01:31:48;20.92;;;10.13;;
12412;SDS011;13877;18.896;-99.222;2023-09-30T01:34:16;18.27;;;10.32;;
12412;SDS011;13877;18.896;-99.222;2023-09-30T01:36:43;15.45;;;9.73;;
12412;SDS011;13877;18.896;-99.222;2023-09-30T01:39:11;14.38;;;9.88;;
12412;SDS011;13877;18.896;-99.222;2023-09-30T01:41:39;17.17;;;8.82;;
12412;SDS011;13877;18.896;-99.222;2023-09-30T01:44:07;19.73;;;10.10;;
12412;SDS011;13877;18.896;-99.222;2023-09-30T01:46:36;17.75;;;10.43;;
12412;SDS011;13877;18.896;-99.222;2023-09-30T01:49:03;22.38;;;10.25;;
12412;SDS011;13877;18.896;-99.222;2023-09-30T01:51:30;19.95;;;10.43;;
12412;SDS011;13877;18.896;-99.222;2023-09-30T01:53:58;17.95;;;9.32;;
12412;SDS011;13877;18.896;-99.222;2023-09-30T01:56:25;18.73;;;10.93;;
12412;SDS011;13877;18.896;-99.222;2023-09-30T01:58:53;16.80;;;10.10;;
12412;SDS011;13877;18.896;-99.222;2023-09-30T02:01:20;18.00;;;10.32;;
12412;SDS011;13877;18.896;-99.222;2023-09-30T02:03:50;18.90;;;10.52;;
12412;SDS011;13877;18.896;-99.222;2023-09-30T02:06:17;21.02;;;11.27;;
12412;SDS011;13877;18.896;-99.222;2023-09-30T02:08:44;29.70;;;12.50;;
12412;SDS011;13877;18.896;-99.222;2023-09-30T02:11:11;26.30;;;12.43;;
12412;SDS011;13877;18.896;-99.222;2023-09-30T02:13:42;23.58;;;12.65;;
12412;SDS011;13877;18.896;-99.222;2023-09-30T02:16:13;23.58;;;12.75;;
12412;SDS011;13877;18.896;-99.222;2023-09-30T02:18:43;23.65;;;12.63;;
12412;SDS011;13877;18.896;-99.222;2023-09-30T02:21:16;21.48;;;11.18;;
12412;SDS011;13877;18.896;-99.222;2023-09-30T02:23:45;22.30;;;12.13;;
12412;SDS011;13877;18.896;-99.222;2023-09-30T02:26:14;23.65;;;11.85;;
12412;SDS011;13877;18.896;-99.222;2023-09-30T02:28:41;22.67;;;11.55;;
12412;SDS011;13877;18.896;-99.222;2023-09-30T02:31:09;19.42;;;11.15;;
12412;SDS011;13877;18.896;-99.222;2023-09-30T02:33:37;15.65;;;10.73;;
12412;SDS011;13877;18.896;-99.222;2023-09-30T02:36:08;28.27;;;12.73;;
12412;SDS011;13877;18.896;-99.222;2023-09-30T02:38:35;22.93;;;13.27;;
12412;SDS011;13877;18.896;-99.222;2023-09-30T02:41:03;22.92;;;12.65;;
12412;SDS011;13877;18.896;-99.222;2023-09-30T02:43:31;28.20;;;13.18;;
12412;SDS011;13877;18.896;-99.222;2023-09-30T02:45:59;24.25;;;13.57;;
12412;SDS011;13877;18.896;-99.222;2023-09-30T02:48:26;27.27;;;14.13;;
12412;SDS011;13877;18.896;-99.222;2023-09-30T02:50:54;26.58;;;12.88;;
12412;SDS011;13877;18.896;-99.222;2023-09-30T02:53:21;30.90;;;13.27;;
12412;SDS011;13877;18.896;-99.222;2023-09-30T02:55:48;22.08;;;12.93;;
12412;SDS011;13877;18.896;-99.222;2023-09-30T02:58:18;26.63;;;12.18;;
12412;SDS011;13877;18.896;-99.222;2023-09-30T03:00:48;26.63;;;11.85;;
12412;SDS011;13877;18.896;-99.222;2023-09-30T03:03:16;25.53;;;11.63;;
12412;SDS011;13877;18.896;-99.222;2023-09-30T03:05:43;22.90;;;11.45;;
12412;SDS011;13877;18.896;-99.222;2023-09-30T03:08:11;26.25;;;11.52;;
12412;SDS011;13877;18.896;-99.222;2023-09-30T03:10:38;26.33;;;12.48;;
12412;SDS011;13877;18.896;-99.222;2023-09-30T03:13:06;35.25;;;11.60;;
12412;SDS011;13877;18.896;-99.222;2023-09-30T03:15:35;22.73;;;12.20;;
12412;SDS011;13877;18.896;-99.222;2023-09-30T03:18:03;21.30;;;11.85;;
12412;SDS011;13877;18.896;-99.222;2023-09-30T03:20:30;27.02;;;13.35;;
12412;SDS011;13877;18.896;-99.222;2023-09-30T03:22:58;41.63;;;14.60;;
12412;SDS011;13877;18.896;-99.222;2023-09-30T03:25:25;28.48;;;13.27;;
12412;SDS011;13877;18.896;-99.222;2023-09-30T03:27:52;22.52;;;12.82;;
12412;SDS011;13877;18.896;-99.222;2023-09-30T03:30:20;30.05;;;13.55;;
12412;SDS011;13877;18.896;-99.222;2023-09-30T03:32:47;32.00;;;14.35;;
12412;SDS011;13877;18.896;-99.222;2023-09-30T03:35:14;35.33;;;14.63;;
12412;SDS011;13877;18.896;-99.222;2023-09-30T03:37:45;37.63;;;14.98;;
12412;SDS011;13877;18.896;-99.222;2023-09-30T03:40:13;33.38;;;15.10;;
12412;SDS011;13877;18.896;-99.222;2023-09-30T03:42:45;49.42;;;17.45;;
12412;SDS011;13877;18.896;-99.222;2023-09-30T03:45:15;47.75;;;17.95;;
12412;SDS011;13877;18.896;-99.222;2023-09-30T03:47:42;41.88;;;15.93;;
12412;SDS011;13877;18.896;-99.222;2023-09-30T03:50:10;45.15;;;16.58;;
12412;SDS011;13877;18.896;-99.222;2023-09-30T03:52:41;40.22;;;18.90;;
12412;SDS011;13877;18.896;-99.222;2023-09-30T03:55:11;42.97;;;18.95;;
12412;SDS011;13877;18.896;-99.222;2023-09-30T03:57:41;44.22;;;18.38;;
12412;SDS011;13877;18.896;-99.222;2023-09-30T04:00:08;43.88;;;18.52;;
12412;SDS011;13877;18.896;-99.222;2023-09-30T04:02:42;36.85;;;18.80;;
12412;SDS011;13877;18.896;-99.222;2023-09-30T04:05:09;50.30;;;20.05;;
12412;SDS011;13877;18.896;-99.222;2023-09-30T04:07:39;42.75;;;19.90;;
12412;SDS011;13877;18.896;-99.222;2023-09-30T04:10:08;33.08;;;16.52;;
12412;SDS011;13877;18.896;-99.222;2023-09-30T04:12:36;44.35;;;16.75;;
12412;SDS011;13877;18.896;-99.222;2023-09-30T04:15:04;40.97;;;17.27;;
12412;SDS011;13877;18.896;-99.222;2023-09-30T04:17:31;35.30;;;17.00;;
12412;SDS011;13877;18.896;-99.222;2023-09-30T04:19:58;27.85;;;13.00;;
12412;SDS011;13877;18.896;-99.222;2023-09-30T04:22:26;35.15;;;14.00;;
12412;SDS011;13877;18.896;-99.222;2023-09-30T04:24:55;34.88;;;15.60;;
12412;SDS011;13877;18.896;-99.222;2023-09-30T04:27:23;35.95;;;14.07;;
12412;SDS011;13877;18.896;-99.222;2023-09-30T04:29:50;25.50;;;13.00;;
12412;SDS011;13877;18.896;-99.222;2023-09-30T04:32:17;28.73;;;13.82;;
12412;SDS011;13877;18.896;-99.222;2023-09-30T04:34:45;30.58;;;13.98;;
12412;SDS011;13877;18.896;-99.222;2023-09-30T04:37:13;35.40;;;13.82;;
12412;SDS011;13877;18.896;-99.222;2023-09-30T04:39:40;28.48;;;13.90;;
12412;SDS011;13877;18.896;-99.222;2023-09-30T04:42:07;30.17;;;13.43;;
12412;SDS011;13877;18.896;-99.222;2023-09-30T04:44:37;40.30;;;14.95;;
12412;SDS011;13877;18.896;-99.222;2023-09-30T04:47:04;40.97;;;14.20;;
12412;SDS011;13877;18.896;-99.222;2023-09-30T04:49:31;32.25;;;14.52;;
12412;SDS011;13877;18.896;-99.222;2023-09-30T04:51:59;39.25;;;14.98;;
12412;SDS011;13877;18.896;-99.222;2023-09-30T04:54:26;28.25;;;14.75;;
12412;SDS011;13877;18.896;-99.222;2023-09-30T04:56:55;39.03;;;14.30;;
12412;SDS011;13877;18.896;-99.222;2023-09-30T04:59:22;37.13;;;15.20;;
12412;SDS011;13877;18.896;-99.222;2023-09-30T05:01:51;30.67;;;16.20;;
12412;SDS011;13877;18.896;-99.222;2023-09-30T05:04:19;30.05;;;15.10;;
12412;SDS011;13877;18.896;-99.222;2023-09-30T05:06:46;32.33;;;14.40;;
12412;SDS011;13877;18.896;-99.222;2023-09-30T05:09:13;34.78;;;15.20;;
12412;SDS011;13877;18.896;-99.222;2023-09-30T05:11:40;30.83;;;15.50;;
12412;SDS011;13877;18.896;-99.222;2023-09-30T05:14:08;37.50;;;16.98;;
12412;SDS011;13877;18.896;-99.222;2023-09-30T05:16:35;34.75;;;14.90;;
12412;SDS011;13877;18.896;-99.222;2023-09-30T05:19:02;39.28;;;15.75;;
12412;SDS011;13877;18.896;-99.222;2023-09-30T05:21:30;36.78;;;15.45;;
12412;SDS011;13877;18.896;-99.222;2023-09-30T05:23:57;37.47;;;16.30;;
12412;SDS011;13877;18.896;-99.222;2023-09-30T05:26:24;37.35;;;16.23;;
12412;SDS011;13877;18.896;-99.222;2023-09-30T05:28:52;31.60;;;15.50;;
12412;SDS011;13877;18.896;-99.222;2023-09-30T05:31:19;38.28;;;15.75;;
12412;SDS011;13877;18.896;-99.222;2023-09-30T05:33:46;42.75;;;16.17;;
12412;SDS011;13877;18.896;-99.222;2023-09-30T05:36:16;39.00;;;16.45;;
12412;SDS011;13877;18.896;-99.222;2023-09-30T05:38:43;39.25;;;15.38;;
12412;SDS011;13877;18.896;-99.222;2023-09-30T05:41:10;29.30;;;14.30;;
12412;SDS011;13877;18.896;-99.222;2023-09-30T05:43:38;27.95;;;13.55;;
12412;SDS011;13877;18.896;-99.222;2023-09-30T05:46:06;30.33;;;14.40;;
12412;SDS011;13877;18.896;-99.222;2023-09-30T05:48:34;24.88;;;12.88;;
12412;SDS011;13877;18.896;-99.222;2023-09-30T05:51:01;25.45;;;14.38;;
12412;SDS011;13877;18.896;-99.222;2023-09-30T05:53:28;24.80;;;13.48;;
12412;SDS011;13877;18.896;-99.222;2023-09-30T05:55:58;36.17;;;13.77;;
12412;SDS011;13877;18.896;-99.222;2023-09-30T05:58:25;27.15;;;12.75;;
12412;SDS011;13877;18.896;-99.222;2023-09-30T06:00:53;25.55;;;13.70;;
12412;SDS011;13877;18.896;-99.222;2023-09-30T06:03:20;27.75;;;14.02;;
12412;SDS011;13877;18.896;-99.222;2023-09-30T06:05:48;31.05;;;13.63;;
12412;SDS011;13877;18.896;-99.222;2023-09-30T06:08:15;25.67;;;13.05;;
12412;SDS011;13877;18.896;-99.222;2023-09-30T06:10:42;31.60;;;13.73;;
12412;SDS011;13877;18.896;-99.222;2023-09-30T06:13:10;26.02;;;13.70;;
12412;SDS011;13877;18.896;-99.222;2023-09-30T06:15:39;25.30;;;13.57;;
12412;SDS011;13877;18.896;-99.222;2023-09-30T06:18:07;25.67;;;14.05;;
12412;SDS011;13877;18.896;-99.222;2023-09-30T06:20:39;35.78;;;14.75;;
12412;SDS011;13877;18.896;-99.222;2023-09-30T06:23:07;31.67;;;14.73;;
12412;SDS011;13877;18.896;-99.222;2023-09-30T06:25:36;30.58;;;16.10;;
12412;SDS011;13877;18.896;-99.222;2023-09-30T06:28:03;28.45;;;13.98;;
12412;SDS011;13877;18.896;-99.222;2023-09-30T06:30:30;35.25;;;15.27;;
12412;SDS011;13877;18.896;-99.222;2023-09-30T06:33:00;34.08;;;15.65;;
12412;SDS011;13877;18.896;-99.222;2023-09-30T06:38:03;31.63;;;15.20;;
12412;SDS011;13877;18.896;-99.222;2023-09-30T06:40:32;25.42;;;14.82;;
12412;SDS011;13877;18.896;-99.222;2023-09-30T06:43:00;30.70;;;14.65;;
12412;SDS011;13877;18.896;-99.222;2023-09-30T06:45:27;28.02;;;14.80;;
12412;SDS011;13877;18.896;-99.222;2023-09-30T06:47:55;28.23;;;12.63;;
12412;SDS011;13877;18.896;-99.222;2023-09-30T06:50:23;25.63;;;11.40;;
12412;SDS011;13877;18.896;-99.222;2023-09-30T06:52:51;28.27;;;12.27;;
12412;SDS011;13877;18.896;-99.222;2023-09-30T06:55:18;29.55;;;12.32;;
12412;SDS011;13877;18.896;-99.222;2023-09-30T06:57:45;32.47;;;12.40;;
12412;SDS011;13877;18.896;-99.222;2023-09-30T07:00:13;20.13;;;11.55;;
12412;SDS011;13877;18.896;-99.222;2023-09-30T07:02:41;22.40;;;12.98;;
12412;SDS011;13877;18.896;-99.222;2023-09-30T07:05:08;35.20;;;14.68;;
12412;SDS011;13877;18.896;-99.222;2023-09-30T07:07:40;26.67;;;13.63;;
12412;SDS011;13877;18.896;-99.222;2023-09-30T07:10:11;23.40;;;13.90;;
12412;SDS011;13877;18.896;-99.222;2023-09-30T07:12:38;28.48;;;15.70;;
12412;SDS011;13877;18.896;-99.222;2023-09-30T07:15:06;28.08;;;14.00;;
12412;SDS011;13877;18.896;-99.222;2023-09-30T07:17:34;30.38;;;15.38;;
12412;SDS011;13877;18.896;-99.222;2023-09-30T07:20:04;30.13;;;17.63;;
12412;SDS011;13877;18.896;-99.222;2023-09-30T07:22:33;30.30;;;14.75;;
12412;SDS011;13877;18.896;-99.222;2023-09-30T07:25:00;31.73;;;16.20;;
12412;SDS011;13877;18.896;-99.222;2023-09-30T07:27:30;27.48;;;16.02;;
12412;SDS011;13877;18.896;-99.222;2023-09-30T07:29:57;29.40;;;17.50;;
12412;SDS011;13877;18.896;-99.222;2023-09-30T07:32:25;30.75;;;16.55;;
12412;SDS011;13877;18.896;-99.222;2023-09-30T07:34:52;34.85;;;17.17;;
12412;SDS011;13877;18.896;-99.222;2023-09-30T07:37:21;41.50;;;17.02;;
12412;SDS011;13877;18.896;-99.222;2023-09-30T07:39:48;37.75;;;15.93;;
12412;SDS011;13877;18.896;-99.222;2023-09-30T07:42:16;30.13;;;15.38;;
12412;SDS011;13877;18.896;-99.222;2023-09-30T07:44:43;36.97;;;15.68;;
12412;SDS011;13877;18.896;-99.222;2023-09-30T07:47:10;26.98;;;14.63;;
12412;SDS011;13877;18.896;-99.222;2023-09-30T07:49:38;25.73;;;14.30;;
12412;SDS011;13877;18.896;-99.222;2023-09-30T07:52:05;24.23;;;12.93;;
12412;SDS011;13877;18.896;-99.222;2023-09-30T07:54:32;25.70;;;12.80;;
12412;SDS011;13877;18.896;-99.222;2023-09-30T07:57:00;26.52;;;12.13;;
12412;SDS011;13877;18.896;-99.222;2023-09-30T07:59:27;21.48;;;12.35;;
12412;SDS011;13877;18.896;-99.222;2023-09-30T08:01:54;23.60;;;12.98;;
12412;SDS011;13877;18.896;-99.222;2023-09-30T08:04:22;28.48;;;12.88;;
12412;SDS011;13877;18.896;-99.222;2023-09-30T08:06:50;20.23;;;11.90;;
12412;SDS011;13877;18.896;-99.222;2023-09-30T08:09:19;24.92;;;11.82;;
12412;SDS011;13877;18.896;-99.222;2023-09-30T08:11:47;24.08;;;12.00;;
12412;SDS011;13877;18.896;-99.222;2023-09-30T08:14:15;23.45;;;11.20;;
12412;SDS011;13877;18.896;-99.222;2023-09-30T08:16:43;24.42;;;11.93;;
12412;SDS011;13877;18.896;-99.222;2023-09-30T08:19:10;32.90;;;13.50;;
12412;SDS011;13877;18.896;-99.222;2023-09-30T08:21:38;22.75;;;11.60;;
12412;SDS011;13877;18.896;-99.222;2023-09-30T08:24:05;23.95;;;12.02;;
12412;SDS011;13877;18.896;-99.222;2023-09-30T08:26:32;21.10;;;11.98;;
12412;SDS011;13877;18.896;-99.222;2023-09-30T08:29:01;21.13;;;11.60;;
12412;SDS011;13877;18.896;-99.222;2023-09-30T08:31:28;17.95;;;10.82;;
12412;SDS011;13877;18.896;-99.222;2023-09-30T08:33:55;21.85;;;11.38;;
12412;SDS011;13877;18.896;-99.222;2023-09-30T08:36:23;20.60;;;11.00;;
12412;SDS011;13877;18.896;-99.222;2023-09-30T08:38:50;17.40;;;10.73;;
12412;SDS011;13877;18.896;-99.222;2023-09-30T08:41:38;22.85;;;11.20;;
12412;SDS011;13877;18.896;-99.222;2023-09-30T08:44:05;16.98;;;11.05;;
12412;SDS011;13877;18.896;-99.222;2023-09-30T08:46:33;19.70;;;11.35;;
12412;SDS011;13877;18.896;-99.222;2023-09-30T08:49:01;24.10;;;10.70;;
12412;SDS011;13877;18.896;-99.222;2023-09-30T08:51:30;21.23;;;10.70;;
12412;SDS011;13877;18.896;-99.222;2023-09-30T08:53:58;20.73;;;11.07;;
12412;SDS011;13877;18.896;-99.222;2023-09-30T08:56:28;19.73;;;10.25;;
12412;SDS011;13877;18.896;-99.222;2023-09-30T08:59:02;17.45;;;10.32;;
12412;SDS011;13877;18.896;-99.222;2023-09-30T09:01:30;23.65;;;11.00;;
12412;SDS011;13877;18.896;-99.222;2023-09-30T09:03:57;19.05;;;9.98;;
12412;SDS011;13877;18.896;-99.222;2023-09-30T09:06:25;18.13;;;9.98;;
12412;SDS011;13877;18.896;-99.222;2023-09-30T09:08:53;18.15;;;9.73;;
12412;SDS011;13877;18.896;-99.222;2023-09-30T09:11:20;16.38;;;9.85;;
12412;SDS011;13877;18.896;-99.222;2023-09-30T09:13:53;16.65;;;9.35;;
12412;SDS011;13877;18.896;-99.222;2023-09-30T09:16:26;27.35;;;10.00;;
12412;SDS011;13877;18.896;-99.222;2023-09-30T09:18:55;21.02;;;9.30;;
12412;SDS011;13877;18.896;-99.222;2023-09-30T09:21:23;18.65;;;8.88;;
12412;SDS011;13877;18.896;-99.222;2023-09-30T09:23:53;20.85;;;9.40;;
12412;SDS011;13877;18.896;-99.222;2023-09-30T09:28:55;25.75;;;9.15;;
12412;SDS011;13877;18.896;-99.222;2023-09-30T09:31:28;15.50;;;10.23;;
12412;SDS011;13877;18.896;-99.222;2023-09-30T09:33:58;22.02;;;9.95;;
12412;SDS011;13877;18.896;-99.222;2023-09-30T09:36:39;19.17;;;9.20;;
12412;SDS011;13877;18.896;-99.222;2023-09-30T09:39:08;24.25;;;10.02;;
12412;SDS011;13877;18.896;-99.222;2023-09-30T09:41:52;24.65;;;10.23;;
12412;SDS011;13877;18.896;-99.222;2023-09-30T09:44:20;17.17;;;9.88;;
12412;SDS011;13877;18.896;-99.222;2023-09-30T09:46:49;16.35;;;9.10;;
12412;SDS011;13877;18.896;-99.222;2023-09-30T09:49:16;23.15;;;9.35;;
12412;SDS011;13877;18.896;-99.222;2023-09-30T09:51:45;16.33;;;10.10;;
12412;SDS011;13877;18.896;-99.222;2023-09-30T09:54:14;18.55;;;9.70;;
12412;SDS011;13877;18.896;-99.222;2023-09-30T09:56:45;16.10;;;9.20;;
12412;SDS011;13877;18.896;-99.222;2023-09-30T09:59:12;18.25;;;10.23;;
12412;SDS011;13877;18.896;-99.222;2023-09-30T10:01:40;17.60;;;9.05;;
12412;SDS011;13877;18.896;-99.222;2023-09-30T10:04:10;20.67;;;9.63;;
12412;SDS011;13877;18.896;-99.222;2023-09-30T10:06:39;20.17;;;9.80;;
12412;SDS011;13877;18.896;-99.222;2023-09-30T10:09:09;23.30;;;10.57;;
12412;SDS011;13877;18.896;-99.222;2023-09-30T10:11:38;19.75;;;10.15;;
12412;SDS011;13877;18.896;-99.222;2023-09-30T10:14:06;16.45;;;10.40;;
12412;SDS011;13877;18.896;-99.222;2023-09-30T10:19:11;23.67;;;10.13;;
12412;SDS011;13877;18.896;-99.222;2023-09-30T10:21:39;19.13;;;9.35;;
12412;SDS011;13877;18.896;-99.222;2023-09-30T10:29:53;20.13;;;10.73;;
12412;SDS011;13877;18.896;-99.222;2023-09-30T10:40:50;25.23;;;11.25;;
12412;SDS011;13877;18.896;-99.222;2023-09-30T10:43:31;17.95;;;11.43;;
12412;SDS011;13877;18.896;-99.222;2023-09-30T10:46:01;20.75;;;11.63;;
12412;SDS011;13877;18.896;-99.222;2023-09-30T10:48:33;28.45;;;12.77;;
12412;SDS011;13877;18.896;-99.222;2023-09-30T10:51:09;22.42;;;11.68;;
12412;SDS011;13877;18.896;-99.222;2023-09-30T10:53:48;26.30;;;12.85;;
12412;SDS011;13877;18.896;-99.222;2023-09-30T10:56:18;33.30;;;13.60;;
12412;SDS011;13877;18.896;-99.222;2023-09-30T10:58:50;20.00;;;13.18;;
12412;SDS011;13877;18.896;-99.222;2023-09-30T11:01:22;25.98;;;14.07;;
12412;SDS011;13877;18.896;-99.222;2023-09-30T11:03:57;24.92;;;14.88;;
12412;SDS011;13877;18.896;-99.222;2023-09-30T11:06:29;23.65;;;13.73;;
12412;SDS011;13877;18.896;-99.222;2023-09-30T11:08:57;20.50;;;12.80;;
12412;SDS011;13877;18.896;-99.222;2023-09-30T11:11:35;26.10;;;14.30;;
12412;SDS011;13877;18.896;-99.222;2023-09-30T11:14:21;25.52;;;13.40;;
12412;SDS011;13877;18.896;-99.222;2023-09-30T11:16:50;21.48;;;13.30;;
12412;SDS011;13877;18.896;-99.222;2023-09-30T11:19:19;26.10;;;13.77;;
12412;SDS011;13877;18.896;-99.222;2023-09-30T11:21:48;21.40;;;13.73;;
12412;SDS011;13877;18.896;-99.222;2023-09-30T11:24:17;20.98;;;13.00;;
12412;SDS011;13877;18.896;-99.222;2023-09-30T11:26:45;21.00;;;13.43;;
12412;SDS011;13877;18.896;-99.222;2023-09-30T11:29:13;21.52;;;13.07;;
12412;SDS011;13877;18.896;-99.222;2023-09-30T11:31:43;19.48;;;13.55;;
12412;SDS011;13877;18.896;-99.222;2023-09-30T11:34:12;28.23;;;12.73;;
12412;SDS011;13877;18.896;-99.222;2023-09-30T11:36:47;17.77;;;10.77;;
12412;SDS011;13877;18.896;-99.222;2023-09-30T11:39:22;19.27;;;10.90;;
12412;SDS011;13877;18.896;-99.222;2023-09-30T11:41:54;21.42;;;10.88;;
12412;SDS011;13877;18.896;-99.222;2023-09-30T11:44:25;15.65;;;9.77;;
12412;SDS011;13877;18.896;-99.222;2023-09-30T11:46:55;15.63;;;10.25;;
12412;SDS011;13877;18.896;-99.222;2023-09-30T11:49:40;18.73;;;10.15;;
12412;SDS011;13877;18.896;-99.222;2023-09-30T11:52:11;20.35;;;10.68;;
12412;SDS011;13877;18.896;-99.222;2023-09-30T11:54:39;20.73;;;10.38;;
12412;SDS011;13877;18.896;-99.222;2023-09-30T11:57:09;20.77;;;11.15;;
12412;SDS011;13877;18.896;-99.222;2023-09-30T11:59:38;25.77;;;10.63;;
12412;SDS011;13877;18.896;-99.222;2023-09-30T12:02:07;18.42;;;10.18;;
12412;SDS011;13877;18.896;-99.222;2023-09-30T12:04:38;24.95;;;10.20;;
12412;SDS011;13877;18.896;-99.222;2023-09-30T12:07:05;20.83;;;11.00;;
12412;SDS011;13877;18.896;-99.222;2023-09-30T12:09:35;18.23;;;10.52;;
12412;SDS011;13877;18.896;-99.222;2023-09-30T12:12:03;21.83;;;11.57;;
12412;SDS011;13877;18.896;-99.222;2023-09-30T12:14:35;20.63;;;10.93;;
12412;SDS011;13877;18.896;-99.222;2023-09-30T12:17:02;19.00;;;11.75;;
12412;SDS011;13877;18.896;-99.222;2023-09-30T12:19:29;27.30;;;11.18;;
12412;SDS011;13877;18.896;-99.222;2023-09-30T12:21:56;19.27;;;11.45;;
12412;SDS011;13877;18.896;-99.222;2023-09-30T12:24:24;29.63;;;10.90;;
12412;SDS011;13877;18.896;-99.222;2023-09-30T12:26:52;19.23;;;11.55;;
12412;SDS011;13877;18.896;-99.222;2023-09-30T12:29:21;28.05;;;11.13;;
12412;SDS011;13877;18.896;-99.222;2023-09-30T12:31:49;21.63;;;11.20;;
12412;SDS011;13877;18.896;-99.222;2023-09-30T12:34:18;23.80;;;11.32;;
12412;SDS011;13877;18.896;-99.222;2023-09-30T12:36:45;20.50;;;11.40;;
12412;SDS011;13877;18.896;-99.222;2023-09-30T12:39:13;24.50;;;12.35;;
12412;SDS011;13877;18.896;-99.222;2023-09-30T12:41:43;20.65;;;11.43;;
12412;SDS011;13877;18.896;-99.222;2023-09-30T12:44:10;22.33;;;11.82;;
12412;SDS011;13877;18.896;-99.222;2023-09-30T12:46:37;23.75;;;12.00;;
12412;SDS011;13877;18.896;-99.222;2023-09-30T12:49:06;26.38;;;11.88;;
12412;SDS011;13877;18.896;-99.222;2023-09-30T12:51:34;29.05;;;12.32;;
12412;SDS011;13877;18.896;-99.222;2023-09-30T12:54:02;18.15;;;11.63;;
12412;SDS011;13877;18.896;-99.222;2023-09-30T12:56:30;20.13;;;11.18;;
12412;SDS011;13877;18.896;-99.222;2023-09-30T12:58:58;20.98;;;12.70;;
12412;SDS011;13877;18.896;-99.222;2023-09-30T13:01:25;23.05;;;10.90;;
12412;SDS011;13877;18.896;-99.222;2023-09-30T13:03:54;28.88;;;11.18;;
12412;SDS011;13877;18.896;-99.222;2023-09-30T13:06:21;19.98;;;10.75;;
12412;SDS011;13877;18.896;-99.222;2023-09-30T13:08:49;26.40;;;12.07;;
12412;SDS011;13877;18.896;-99.222;2023-09-30T13:11:16;23.85;;;10.70;;
12412;SDS011;13877;18.896;-99.222;2023-09-30T13:13:43;21.42;;;10.80;;
12412;SDS011;13877;18.896;-99.222;2023-09-30T13:16:11;21.63;;;11.15;;
12412;SDS011;13877;18.896;-99.222;2023-09-30T13:18:38;25.27;;;11.20;;
12412;SDS011;13877;18.896;-99.222;2023-09-30T13:21:06;23.08;;;11.55;;
12412;SDS011;13877;18.896;-99.222;2023-09-30T13:23:33;21.67;;;10.95;;
12412;SDS011;13877;18.896;-99.222;2023-09-30T13:26:01;20.67;;;10.23;;
12412;SDS011;13877;18.896;-99.222;2023-09-30T13:28:29;17.23;;;10.35;;
12412;SDS011;13877;18.896;-99.222;2023-09-30T13:30:56;21.38;;;10.63;;
12412;SDS011;13877;18.896;-99.222;2023-09-30T13:33:23;28.25;;;10.77;;
12412;SDS011;13877;18.896;-99.222;2023-09-30T13:35:50;17.65;;;10.15;;
12412;SDS011;13877;18.896;-99.222;2023-09-30T13:38:18;19.70;;;10.25;;
12412;SDS011;13877;18.896;-99.222;2023-09-30T13:40:45;23.42;;;10.43;;
12412;SDS011;13877;18.896;-99.222;2023-09-30T13:43:12;28.40;;;10.68;;
12412;SDS011;13877;18.896;-99.222;2023-09-30T13:45:40;19.65;;;11.00;;
12412;SDS011;13877;18.896;-99.222;2023-09-30T13:48:07;19.40;;;10.45;;
12412;SDS011;13877;18.896;-99.222;2023-09-30T13:50:34;22.13;;;10.65;;
12412;SDS011;13877;18.896;-99.222;2023-09-30T13:53:02;25.27;;;11.15;;
12412;SDS011;13877;18.896;-99.222;2023-09-30T13:55:29;22.70;;;10.38;;
12412;SDS011;13877;18.896;-99.222;2023-09-30T13:57:56;20.45;;;10.75;;
12412;SDS011;13877;18.896;-99.222;2023-09-30T14:00:23;25.48;;;10.73;;
12412;SDS011;13877;18.896;-99.222;2023-09-30T14:02:51;24.25;;;10.43;;
12412;SDS011;13877;18.896;-99.222;2023-09-30T14:05:18;23.40;;;10.80;;
12412;SDS011;13877;18.896;-99.222;2023-09-30T14:07:46;19.73;;;11.15;;
12412;SDS011;13877;18.896;-99.222;2023-09-30T14:10:14;15.88;;;10.13;;
12412;SDS011;13877;18.896;-99.222;2023-09-30T14:12:41;17.15;;;10.23;;
12412;SDS011;13877;18.896;-99.222;2023-09-30T14:15:08;18.00;;;9.90;;
12412;SDS011;13877;18.896;-99.222;2023-09-30T14:17:36;18.05;;;9.93;;
12412;SDS011;13877;18.896;-99.222;2023-09-30T14:20:03;17.75;;;10.30;;
12412;SDS011;13877;18.896;-99.222;2023-09-30T14:22:32;21.70;;;10.00;;
12412;SDS011;13877;18.896;-99.222;2023-09-30T14:24:59;20.17;;;10.32;;
12412;SDS011;13877;18.896;-99.222;2023-09-30T14:27:27;24.60;;;10.75;;